createdAt,value
2023-05-21T00:00:49.173Z,0.00
2023-05-21T00:01:49.176Z,0.00
2023-05-21T00:02:49.265Z,0.00
2023-05-21T00:03:49.279Z,0.00
2023-05-21T00:04:49.161Z,0.00
2023-05-21T00:05:49.162Z,0.00
2023-05-21T00:06:49.142Z,0.00
2023-05-21T00:07:49.138Z,0.00
2023-05-21T00:08:49.138Z,0.00
2023-05-21T00:09:49.129Z,0.00
2023-05-21T00:10:49.123Z,0.00
2023-05-21T00:11:49.119Z,0.00
2023-05-21T00:12:49.144Z,0.00
2023-05-21T00:13:49.113Z,0.00
2023-05-21T00:14:49.098Z,0.00
2023-05-21T00:15:49.096Z,0.00
2023-05-21T00:16:49.196Z,0.00
2023-05-21T00:17:49.120Z,0.00
2023-05-21T00:18:49.130Z,0.00
2023-05-21T00:19:49.071Z,0.00
2023-05-21T00:20:49.068Z,0.00
2023-05-21T00:21:49.060Z,0.00
2023-05-21T00:22:49.059Z,0.00
2023-05-21T00:23:49.046Z,0.00
2023-05-21T00:24:49.068Z,0.00
2023-05-21T00:25:49.041Z,0.00
2023-05-21T00:26:49.038Z,0.00
2023-05-21T00:27:49.024Z,0.00
2023-05-21T00:28:49.018Z,0.00
2023-05-21T00:29:49.033Z,0.00
2023-05-21T00:30:49.015Z,0.00
2023-05-21T00:31:49.141Z,0.00
2023-05-21T00:32:49.018Z,0.00
2023-05-21T00:33:48.994Z,0.00
2023-05-21T00:34:48.992Z,0.00
2023-05-21T00:35:48.986Z,0.00
2023-05-21T00:36:48.977Z,0.00
2023-05-21T00:37:48.973Z,0.00
2023-05-21T00:38:48.968Z,0.00
2023-05-21T00:39:48.969Z,0.00
2023-05-21T00:40:48.955Z,0.00
2023-05-21T00:41:48.945Z,0.00
2023-05-21T00:42:48.942Z,0.00
2023-05-21T00:43:48.937Z,0.00
2023-05-21T00:44:48.933Z,0.00
2023-05-21T00:45:48.933Z,0.00
2023-05-21T00:46:49.005Z,0.00
2023-05-21T00:47:48.945Z,0.00
2023-05-21T00:48:48.911Z,0.00
2023-05-21T00:49:48.915Z,0.00
2023-05-21T00:50:48.901Z,0.00
2023-05-21T00:51:48.894Z,0.00
2023-05-21T00:52:48.905Z,0.00
2023-05-21T00:53:48.881Z,0.00
2023-05-21T00:54:48.876Z,0.00
2023-05-21T00:55:48.878Z,0.00
2023-05-21T00:56:48.863Z,0.00
2023-05-21T00:57:48.862Z,0.00
2023-05-21T00:58:48.867Z,0.00
2023-05-21T00:59:48.852Z,0.00
2023-05-21T01:00:48.851Z,0.00
2023-05-21T01:01:48.877Z,0.00
2023-05-21T01:02:48.911Z,0.00
2023-05-21T01:03:49.046Z,0.00
2023-05-21T01:04:48.813Z,0.00
2023-05-21T01:05:48.815Z,0.00
2023-05-21T01:06:48.808Z,0.00
2023-05-21T01:07:48.806Z,0.00
2023-05-21T01:08:48.815Z,0.00
2023-05-21T01:09:48.784Z,0.00
2023-05-21T01:10:48.792Z,0.00
2023-05-21T01:11:48.787Z,0.00
2023-05-21T01:12:48.767Z,0.00
2023-05-21T01:13:48.770Z,0.00
2023-05-21T01:14:48.760Z,0.00
2023-05-21T01:15:48.763Z,0.00
2023-05-21T01:16:48.777Z,0.00
2023-05-21T01:17:48.819Z,0.00
2023-05-21T01:18:48.837Z,0.00
2023-05-21T01:19:48.759Z,0.00
2023-05-21T01:20:48.728Z,0.00
2023-05-21T01:21:48.723Z,0.00
2023-05-21T01:22:48.724Z,0.00
2023-05-21T01:23:48.714Z,0.00
2023-05-21T01:24:48.709Z,0.00
2023-05-21T01:25:48.697Z,0.00
2023-05-21T01:26:48.694Z,0.00
2023-05-21T01:27:48.691Z,0.00
2023-05-21T01:28:48.685Z,0.00
2023-05-21T01:29:48.678Z,0.00
2023-05-21T01:30:48.694Z,0.00
2023-05-21T01:31:48.666Z,0.00
2023-05-21T01:32:48.798Z,0.00
2023-05-21T01:33:48.755Z,0.00
2023-05-21T01:34:48.648Z,0.00
2023-05-21T01:35:48.649Z,0.00
2023-05-21T01:36:48.644Z,0.00
2023-05-21T01:37:48.646Z,0.00
2023-05-21T01:38:48.629Z,0.00
2023-05-21T01:39:48.645Z,0.00
2023-05-21T01:40:48.621Z,0.00
2023-05-21T01:41:48.617Z,0.00
2023-05-21T01:42:48.605Z,0.00
2023-05-21T01:43:48.613Z,0.00
2023-05-21T01:44:48.598Z,0.00
2023-05-21T01:45:48.595Z,0.00
2023-05-21T01:46:48.688Z,0.00
2023-05-21T01:47:48.659Z,0.00
2023-05-21T01:48:48.575Z,0.00
2023-05-21T01:49:48.577Z,0.00
2023-05-21T01:50:48.615Z,0.00
2023-05-21T01:51:48.561Z,0.00
2023-05-21T01:52:48.546Z,0.00
2023-05-21T01:53:48.550Z,0.00
2023-05-21T01:54:48.544Z,0.00
2023-05-21T01:55:48.548Z,0.00
2023-05-21T01:56:48.549Z,0.00
2023-05-21T01:57:48.528Z,0.00
2023-05-21T01:58:48.522Z,0.00
2023-05-21T01:59:48.521Z,0.00
2023-05-21T02:00:48.514Z,0.00
2023-05-21T02:01:48.548Z,0.00
2023-05-21T02:02:48.611Z,0.00
2023-05-21T02:03:48.514Z,0.00
2023-05-21T02:04:48.489Z,0.00
2023-05-21T02:05:48.507Z,0.00
2023-05-21T02:06:48.478Z,0.00
2023-05-21T02:07:48.472Z,0.00
2023-05-21T02:08:48.484Z,0.00
2023-05-21T02:09:48.461Z,0.00
2023-05-21T02:10:48.463Z,0.00
2023-05-21T02:11:48.450Z,0.00
2023-05-21T02:12:48.452Z,0.00
2023-05-21T02:13:48.447Z,0.00
2023-05-21T02:14:48.440Z,0.00
2023-05-21T02:15:48.492Z,0.00
2023-05-21T02:16:48.426Z,0.00
2023-05-21T02:17:48.448Z,0.00
2023-05-21T02:18:48.477Z,0.00
2023-05-21T02:19:48.407Z,0.00
2023-05-21T02:20:48.405Z,0.00
2023-05-21T02:21:48.393Z,0.00
2023-05-21T02:22:48.382Z,0.00
2023-05-21T02:23:48.381Z,0.00
2023-05-21T02:24:48.383Z,0.00
2023-05-21T02:25:48.382Z,0.00
2023-05-21T02:26:48.369Z,0.00
2023-05-21T02:27:48.360Z,0.00
2023-05-21T02:28:48.349Z,0.00
2023-05-21T02:29:48.349Z,0.00
2023-05-21T02:30:48.343Z,0.00
2023-05-21T02:31:48.346Z,0.00
2023-05-21T02:32:48.369Z,0.00
2023-05-21T02:33:48.352Z,0.00
2023-05-21T02:34:48.324Z,0.00
2023-05-21T02:35:48.317Z,0.00
2023-05-21T02:36:48.320Z,0.00
2023-05-21T02:37:48.309Z,0.00
2023-05-21T02:38:48.304Z,0.00
2023-05-21T02:39:48.293Z,0.00
2023-05-21T02:40:48.293Z,0.00
2023-05-21T02:41:48.282Z,0.00
2023-05-21T02:42:48.279Z,0.00
2023-05-21T02:43:48.277Z,0.00
2023-05-21T02:44:48.274Z,0.00
2023-05-21T02:45:48.287Z,0.00
2023-05-21T02:46:48.254Z,0.00
2023-05-21T02:47:48.278Z,0.00
2023-05-21T02:48:48.252Z,0.00
2023-05-21T02:49:48.254Z,0.00
2023-05-21T02:50:48.234Z,0.00
2023-05-21T02:51:48.234Z,0.00
2023-05-21T02:52:48.225Z,0.00
2023-05-21T02:53:48.213Z,0.00
2023-05-21T02:54:48.210Z,0.00
2023-05-21T02:55:48.206Z,0.00
2023-05-21T02:56:48.197Z,0.00
2023-05-21T02:57:48.193Z,0.00
2023-05-21T02:58:48.190Z,0.00
2023-05-21T02:59:48.179Z,0.00
2023-05-21T03:00:48.180Z,0.00
2023-05-21T03:01:48.260Z,0.00
2023-05-21T03:02:48.357Z,0.00
2023-05-21T03:03:48.198Z,0.00
2023-05-21T03:04:48.151Z,0.00
2023-05-21T03:05:48.147Z,0.00
2023-05-21T03:06:48.135Z,0.00
2023-05-21T03:07:48.152Z,0.00
2023-05-21T03:08:48.142Z,0.00
2023-05-21T03:09:48.126Z,0.00
2023-05-21T03:10:48.119Z,0.00
2023-05-21T03:11:48.146Z,0.00
2023-05-21T03:12:48.113Z,0.00
2023-05-21T03:13:48.136Z,0.00
2023-05-21T03:14:48.114Z,0.00
2023-05-21T03:15:48.107Z,0.00
2023-05-21T03:16:48.123Z,0.00
2023-05-21T03:17:48.113Z,0.00
2023-05-21T03:18:48.098Z,0.00
2023-05-21T03:19:48.071Z,0.00
2023-05-21T03:20:48.070Z,0.00
2023-05-21T03:21:48.056Z,0.00
2023-05-21T03:22:48.045Z,0.00
2023-05-21T03:23:48.040Z,0.00
2023-05-21T03:24:48.067Z,0.00
2023-05-21T03:25:48.042Z,0.00
2023-05-21T03:26:48.061Z,0.00
2023-05-21T03:27:48.047Z,0.00
2023-05-21T03:28:48.053Z,0.00
2023-05-21T03:29:48.022Z,0.00
2023-05-21T03:30:48.022Z,0.00
2023-05-21T03:31:48.065Z,0.00
2023-05-21T03:32:48.057Z,0.00
2023-05-21T03:33:48.008Z,0.00
2023-05-21T03:34:48.006Z,0.00
2023-05-21T03:35:47.972Z,0.00
2023-05-21T03:36:48.004Z,0.00
2023-05-21T03:37:47.990Z,0.00
2023-05-21T03:38:47.974Z,0.00
2023-05-21T03:39:47.961Z,0.00
2023-05-21T03:40:47.950Z,0.00
2023-05-21T03:41:47.968Z,0.00
2023-05-21T03:42:47.969Z,0.00
2023-05-21T03:43:47.950Z,0.00
2023-05-21T03:44:47.963Z,0.00
2023-05-21T03:45:47.952Z,0.00
2023-05-21T03:46:47.913Z,0.00
2023-05-21T03:47:47.999Z,0.00
2023-05-21T03:48:47.913Z,0.00
2023-05-21T03:49:47.945Z,0.00
2023-05-21T03:50:47.902Z,0.00
2023-05-21T03:51:47.884Z,0.00
2023-05-21T03:52:47.887Z,0.00
2023-05-21T03:53:47.874Z,0.00
2023-05-21T03:54:47.869Z,0.00
2023-05-21T03:55:47.871Z,0.00
2023-05-21T03:56:47.868Z,0.00
2023-05-21T03:57:47.859Z,0.00
2023-05-21T03:58:47.851Z,0.00
2023-05-21T03:59:47.851Z,0.00
2023-05-21T04:00:47.837Z,0.00
2023-05-21T04:01:47.850Z,0.00
2023-05-21T04:02:47.990Z,0.00
2023-05-21T04:03:47.911Z,0.00
2023-05-21T04:04:47.897Z,0.00
2023-05-21T04:05:47.807Z,0.00
2023-05-21T04:06:47.835Z,0.00
2023-05-21T04:07:47.794Z,0.00
2023-05-21T04:08:47.795Z,0.00
2023-05-21T04:09:47.797Z,0.00
2023-05-21T04:10:47.785Z,0.00
2023-05-21T04:11:47.775Z,0.00
2023-05-21T04:12:47.776Z,0.00
2023-05-21T04:13:47.768Z,0.00
2023-05-21T04:14:47.774Z,0.00
2023-05-21T04:15:47.768Z,0.00
2023-05-21T04:16:47.746Z,0.00
2023-05-21T04:17:47.819Z,0.00
2023-05-21T04:18:47.802Z,0.00
2023-05-21T04:19:47.732Z,0.00
2023-05-21T04:20:47.725Z,0.00
2023-05-21T04:21:47.722Z,0.00
2023-05-21T04:22:47.718Z,0.00
2023-05-21T04:23:47.698Z,0.00
2023-05-21T04:24:47.696Z,0.00
2023-05-21T04:25:47.699Z,0.00
2023-05-21T04:26:47.687Z,0.00
2023-05-21T04:27:47.770Z,0.00
2023-05-21T04:28:47.708Z,0.00
2023-05-21T04:29:49.512Z,0.00
2023-05-21T04:30:47.682Z,0.00
2023-05-21T04:31:47.744Z,0.00
2023-05-21T04:32:47.663Z,0.00
2023-05-21T04:33:47.666Z,0.00
2023-05-21T04:34:47.667Z,0.00
2023-05-21T04:35:47.652Z,0.00
2023-05-21T04:36:47.627Z,0.00
2023-05-21T04:37:47.641Z,0.00
2023-05-21T04:38:47.627Z,0.00
2023-05-21T04:39:47.609Z,5.63
2023-05-21T04:40:47.611Z,5.63
2023-05-21T04:41:47.597Z,5.63
2023-05-21T04:42:47.601Z,5.63
2023-05-21T04:43:47.591Z,5.63
2023-05-21T04:44:47.588Z,5.63
2023-05-21T04:45:47.581Z,5.63
2023-05-21T04:46:47.617Z,5.63
2023-05-21T04:47:47.615Z,5.63
2023-05-21T04:48:47.565Z,5.63
2023-05-21T04:49:47.564Z,5.63
2023-05-21T04:50:47.555Z,5.63
2023-05-21T04:51:47.552Z,5.63
2023-05-21T04:52:47.550Z,5.63
2023-05-21T04:53:47.572Z,5.63
2023-05-21T04:54:47.532Z,5.63
2023-05-21T04:55:47.528Z,5.63
2023-05-21T04:56:47.518Z,5.63
2023-05-21T04:57:47.539Z,5.63
2023-05-21T04:58:47.509Z,5.63
2023-05-21T04:59:47.512Z,5.63
2023-05-21T05:00:47.588Z,5.63
2023-05-21T05:01:47.510Z,5.63
2023-05-21T05:02:47.544Z,5.63
2023-05-21T05:03:47.510Z,5.63
2023-05-21T05:04:47.480Z,5.63
2023-05-21T05:05:47.497Z,5.63
2023-05-21T05:06:47.461Z,11.25
2023-05-21T05:07:47.478Z,11.25
2023-05-21T05:08:47.466Z,11.25
2023-05-21T05:09:47.475Z,11.25
2023-05-21T05:10:47.448Z,11.25
2023-05-21T05:11:47.431Z,11.25
2023-05-21T05:12:47.427Z,11.25
2023-05-21T05:13:47.452Z,11.25
2023-05-21T05:14:47.422Z,11.25
2023-05-21T05:15:49.601Z,11.25
2023-05-21T05:16:47.432Z,11.25
2023-05-21T05:17:47.445Z,11.25
2023-05-21T05:18:47.401Z,11.25
2023-05-21T05:19:47.388Z,11.25
2023-05-21T05:20:47.388Z,11.25
2023-05-21T05:21:47.386Z,11.25
2023-05-21T05:22:47.414Z,11.25
2023-05-21T05:23:47.370Z,11.25
2023-05-21T05:24:47.372Z,11.25
2023-05-21T05:25:47.371Z,11.25
2023-05-21T05:26:47.354Z,11.25
2023-05-21T05:27:47.349Z,11.25
2023-05-21T05:28:47.344Z,11.25
2023-05-21T05:29:47.331Z,11.25
2023-05-21T05:30:47.354Z,11.25
2023-05-21T05:31:47.323Z,16.88
2023-05-21T05:32:47.344Z,16.88
2023-05-21T05:33:47.316Z,16.88
2023-05-21T05:34:47.320Z,16.88
2023-05-21T05:35:47.304Z,16.88
2023-05-21T05:36:47.304Z,16.88
2023-05-21T05:37:47.294Z,16.88
2023-05-21T05:38:47.283Z,16.88
2023-05-21T05:39:47.288Z,16.88
2023-05-21T05:40:47.278Z,16.88
2023-05-21T05:41:47.273Z,16.88
2023-05-21T05:42:47.265Z,16.88
2023-05-21T05:43:47.256Z,16.88
2023-05-21T05:44:47.252Z,16.88
2023-05-21T05:45:47.355Z,16.88
2023-05-21T05:46:47.277Z,16.88
2023-05-21T05:47:47.293Z,22.50
2023-05-21T05:48:47.231Z,22.50
2023-05-21T05:49:47.214Z,22.50
2023-05-21T05:50:47.218Z,22.50
2023-05-21T05:51:47.213Z,22.50
2023-05-21T05:52:47.206Z,28.13
2023-05-21T05:53:47.198Z,28.13
2023-05-21T05:54:47.209Z,28.13
2023-05-21T05:55:47.189Z,28.13
2023-05-21T05:56:47.191Z,28.13
2023-05-21T05:57:47.181Z,28.13
2023-05-21T05:58:47.182Z,28.13
2023-05-21T05:59:47.166Z,28.13
2023-05-21T06:00:47.168Z,28.13
2023-05-21T06:01:47.164Z,28.13
2023-05-21T06:02:47.193Z,28.13
2023-05-21T06:03:47.379Z,33.75
2023-05-21T06:04:47.145Z,33.75
2023-05-21T06:05:47.158Z,33.75
2023-05-21T06:06:47.131Z,33.75
2023-05-21T06:07:47.132Z,33.75
2023-05-21T06:08:47.123Z,33.75
2023-05-21T06:09:47.117Z,33.75
2023-05-21T06:10:47.108Z,33.75
2023-05-21T06:11:47.113Z,33.75
2023-05-21T06:12:47.109Z,33.75
2023-05-21T06:13:47.099Z,33.75
2023-05-21T06:14:47.082Z,33.75
2023-05-21T06:15:47.098Z,33.75
2023-05-21T06:16:47.084Z,33.75
2023-05-21T06:17:47.151Z,33.75
2023-05-21T06:18:47.094Z,33.75
2023-05-21T06:19:47.063Z,33.75
2023-05-21T06:20:47.059Z,33.75
2023-05-21T06:21:47.058Z,39.38
2023-05-21T06:22:47.044Z,39.38
2023-05-21T06:23:47.048Z,39.38
2023-05-21T06:24:47.045Z,39.38
2023-05-21T06:25:47.046Z,45.00
2023-05-21T06:26:47.034Z,45.00
2023-05-21T06:27:47.029Z,45.00
2023-05-21T06:28:47.015Z,50.63
2023-05-21T06:29:47.019Z,50.63
2023-05-21T06:30:47.013Z,50.63
2023-05-21T06:31:46.998Z,50.63
2023-05-21T06:32:47.034Z,50.63
2023-05-21T06:33:47.131Z,50.63
2023-05-21T06:34:47.013Z,50.63
2023-05-21T06:35:47.018Z,56.25
2023-05-21T06:36:47.000Z,56.25
2023-05-21T06:37:46.978Z,56.25
2023-05-21T06:38:46.969Z,56.25
2023-05-21T06:39:46.961Z,56.25
2023-05-21T06:40:46.966Z,56.25
2023-05-21T06:41:46.956Z,56.25
2023-05-21T06:42:46.947Z,56.25
2023-05-21T06:43:46.957Z,56.25
2023-05-21T06:44:46.958Z,56.25
2023-05-21T06:45:46.965Z,56.25
2023-05-21T06:46:46.932Z,56.25
2023-05-21T06:47:47.004Z,56.25
2023-05-21T06:48:46.922Z,56.25
2023-05-21T06:49:46.929Z,56.25
2023-05-21T06:50:46.917Z,56.25
2023-05-21T06:51:46.909Z,56.25
2023-05-21T06:52:46.909Z,56.25
2023-05-21T06:53:46.905Z,56.25
2023-05-21T06:54:46.903Z,56.25
2023-05-21T06:55:46.890Z,56.25
2023-05-21T06:56:46.887Z,56.25
2023-05-21T06:57:46.883Z,56.25
2023-05-21T06:58:46.880Z,56.25
2023-05-21T06:59:46.880Z,56.25
2023-05-21T07:00:46.897Z,56.25
2023-05-21T07:01:46.880Z,56.25
2023-05-21T07:02:46.977Z,56.25
2023-05-21T07:03:46.902Z,61.88
2023-05-21T07:04:46.856Z,61.88
2023-05-21T07:05:46.844Z,67.50
2023-05-21T07:06:46.892Z,67.50
2023-05-21T07:07:46.841Z,67.50
2023-05-21T07:08:46.832Z,67.50
2023-05-21T07:09:46.823Z,67.50
2023-05-21T07:10:46.815Z,67.50
2023-05-21T07:11:46.820Z,67.50
2023-05-21T07:12:46.816Z,67.50
2023-05-21T07:13:46.812Z,61.88
2023-05-21T07:15:07.810Z,61.88
2023-05-21T07:15:46.800Z,61.88
2023-05-21T07:16:46.867Z,61.88
2023-05-21T07:17:46.845Z,61.88
2023-05-21T07:18:46.822Z,56.25
2023-05-21T07:19:46.789Z,56.25
2023-05-21T07:20:46.771Z,56.25
2023-05-21T07:21:46.769Z,56.25
2023-05-21T07:22:46.765Z,50.63
2023-05-21T07:23:46.764Z,50.63
2023-05-21T07:24:46.764Z,50.63
2023-05-21T07:25:46.744Z,50.63
2023-05-21T07:26:46.760Z,50.63
2023-05-21T07:27:46.733Z,56.25
2023-05-21T07:28:46.774Z,56.25
2023-05-21T07:29:46.738Z,56.25
2023-05-21T07:30:46.743Z,56.25
2023-05-21T07:31:46.722Z,56.25
2023-05-21T07:32:46.775Z,61.88
2023-05-21T07:33:46.722Z,61.88
2023-05-21T07:34:46.716Z,61.88
2023-05-21T07:35:46.711Z,61.88
2023-05-21T07:36:46.700Z,61.88
2023-05-21T07:37:46.781Z,61.88
2023-05-21T07:38:46.701Z,67.50
2023-05-21T07:39:46.697Z,67.50
2023-05-21T07:40:46.687Z,67.50
2023-05-21T07:41:46.684Z,67.50
2023-05-21T07:42:46.684Z,67.50
2023-05-21T07:43:46.681Z,67.50
2023-05-21T07:44:46.667Z,67.50
2023-05-21T07:45:46.673Z,67.50
2023-05-21T07:46:46.763Z,67.50
2023-05-21T07:47:46.788Z,67.50
2023-05-21T07:48:46.659Z,67.50
2023-05-21T07:49:46.651Z,67.50
2023-05-21T07:50:46.651Z,67.50
2023-05-21T07:51:46.722Z,78.75
2023-05-21T07:52:46.662Z,73.13
2023-05-21T07:53:46.641Z,73.13
2023-05-21T07:54:46.628Z,78.75
2023-05-21T07:55:46.632Z,78.75
2023-05-21T07:56:46.637Z,78.75
2023-05-21T07:57:46.625Z,84.38
2023-05-21T07:58:46.616Z,84.38
2023-05-21T07:59:46.661Z,84.38
2023-05-21T08:00:46.611Z,84.38
2023-05-21T08:01:46.608Z,90.00
2023-05-21T08:02:46.676Z,90.00
2023-05-21T08:03:46.755Z,95.63
2023-05-21T08:04:46.633Z,95.63
2023-05-21T08:05:46.600Z,95.63
2023-05-21T08:06:46.585Z,95.63
2023-05-21T08:07:46.583Z,95.63
2023-05-21T08:08:46.583Z,95.63
2023-05-21T08:09:46.578Z,95.63
2023-05-21T08:10:46.568Z,95.63
2023-05-21T08:11:46.574Z,95.63
2023-05-21T08:12:46.569Z,90.00
2023-05-21T08:13:46.576Z,84.38
2023-05-21T08:14:46.567Z,84.38
2023-05-21T08:15:46.559Z,78.75
2023-05-21T08:16:46.655Z,78.75
2023-05-21T08:17:46.602Z,78.75
2023-05-21T08:18:46.633Z,73.13
2023-05-21T08:19:46.543Z,67.50
2023-05-21T08:20:46.530Z,67.50
2023-05-21T08:21:46.537Z,67.50
2023-05-21T08:22:46.527Z,61.88
2023-05-21T08:23:46.526Z,61.88
2023-05-21T08:24:46.554Z,61.88
2023-05-21T08:25:46.520Z,61.88
2023-05-21T08:26:46.525Z,61.88
2023-05-21T08:27:46.522Z,61.88
2023-05-21T08:28:46.509Z,61.88
2023-05-21T08:29:46.599Z,67.50
2023-05-21T08:30:46.503Z,67.50
2023-05-21T08:31:46.521Z,67.50
2023-05-21T08:32:46.529Z,67.50
2023-05-21T08:33:46.496Z,73.13
2023-05-21T08:34:46.513Z,73.13
2023-05-21T08:35:46.484Z,67.50
2023-05-21T08:36:46.485Z,67.50
2023-05-21T08:37:46.490Z,67.50
2023-05-21T08:38:46.471Z,67.50
2023-05-21T08:39:46.470Z,73.13
2023-05-21T08:40:46.480Z,84.38
2023-05-21T08:41:46.464Z,95.63
2023-05-21T08:42:46.464Z,84.38
2023-05-21T08:43:48.591Z,78.75
2023-05-21T08:44:46.462Z,73.13
2023-05-21T08:45:46.460Z,73.13
2023-05-21T08:46:46.457Z,78.75
2023-05-21T08:47:46.512Z,78.75
2023-05-21T08:48:46.443Z,73.13
2023-05-21T08:49:46.438Z,90.00
2023-05-21T08:50:46.443Z,95.63
2023-05-21T08:51:46.440Z,101.25
2023-05-21T08:52:46.433Z,106.88
2023-05-21T08:53:46.426Z,118.13
2023-05-21T08:54:46.421Z,106.88
2023-05-21T08:55:46.424Z,123.75
2023-05-21T08:56:46.420Z,123.75
2023-05-21T08:57:46.419Z,123.75
2023-05-21T08:58:46.479Z,123.75
2023-05-21T08:59:46.437Z,129.38
2023-05-21T09:00:46.408Z,129.38
2023-05-21T09:01:46.441Z,123.75
2023-05-21T09:02:46.493Z,129.38
2023-05-21T09:03:46.419Z,123.75
2023-05-21T09:04:46.487Z,129.38
2023-05-21T09:05:46.385Z,129.38
2023-05-21T09:06:46.391Z,129.38
2023-05-21T09:07:46.385Z,112.50
2023-05-21T09:08:46.397Z,118.13
2023-05-21T09:09:46.386Z,129.38
2023-05-21T09:10:46.393Z,123.75
2023-05-21T09:11:46.385Z,140.63
2023-05-21T09:12:46.370Z,146.25
2023-05-21T09:13:46.375Z,151.88
2023-05-21T09:14:46.374Z,135.00
2023-05-21T09:15:46.371Z,140.63
2023-05-21T09:16:46.379Z,129.38
2023-05-21T09:17:46.402Z,129.38
2023-05-21T09:18:46.418Z,118.13
2023-05-21T09:19:46.363Z,106.88
2023-05-21T09:20:46.367Z,95.63
2023-05-21T09:21:46.376Z,90.00
2023-05-21T09:22:46.366Z,90.00
2023-05-21T09:23:46.363Z,90.00
2023-05-21T09:24:46.359Z,90.00
2023-05-21T09:25:46.375Z,90.00
2023-05-21T09:26:46.371Z,95.63
2023-05-21T09:27:46.351Z,101.25
2023-05-21T09:28:46.353Z,101.25
2023-05-21T09:29:46.365Z,123.75
2023-05-21T09:30:46.378Z,118.13
2023-05-21T09:31:46.554Z,118.13
2023-05-21T09:32:46.372Z,118.13
2023-05-21T09:33:46.358Z,118.13
2023-05-21T09:34:46.355Z,129.38
2023-05-21T09:35:46.358Z,140.63
2023-05-21T09:36:46.347Z,140.63
2023-05-21T09:37:46.361Z,140.63
2023-05-21T09:38:46.346Z,157.50
2023-05-21T09:39:46.345Z,157.50
2023-05-21T09:40:46.353Z,151.88
2023-05-21T09:41:46.359Z,146.25
2023-05-21T09:42:46.377Z,146.25
2023-05-21T09:43:46.342Z,146.25
2023-05-21T09:44:46.358Z,140.63
2023-05-21T09:45:46.351Z,140.63
2023-05-21T09:46:46.389Z,140.63
2023-05-21T09:47:46.437Z,146.25
2023-05-21T09:48:46.359Z,157.50
2023-05-21T09:49:46.339Z,157.50
2023-05-21T09:50:46.383Z,146.25
2023-05-21T09:51:46.349Z,151.88
2023-05-21T09:52:46.341Z,151.88
2023-05-21T09:53:46.348Z,151.88
2023-05-21T09:54:46.357Z,163.13
2023-05-21T09:55:46.368Z,168.75
2023-05-21T09:56:46.347Z,168.75
2023-05-21T09:57:47.571Z,163.13
2023-05-21T09:58:46.366Z,168.75
2023-05-21T09:59:46.354Z,174.38
2023-05-21T10:00:46.349Z,185.63
2023-05-21T10:01:46.386Z,180.00
2023-05-21T10:02:46.431Z,180.00
2023-05-21T10:03:47.292Z,180.00
2023-05-21T10:04:46.404Z,180.00
2023-05-21T10:05:46.362Z,180.00
2023-05-21T10:06:46.361Z,180.00
2023-05-21T10:07:46.395Z,185.63
2023-05-21T10:08:46.371Z,180.00
2023-05-21T10:09:46.363Z,180.00
2023-05-21T10:10:46.370Z,180.00
2023-05-21T10:11:46.395Z,180.00
2023-05-21T10:12:46.374Z,180.00
2023-05-21T10:13:46.380Z,185.63
2023-05-21T10:14:46.377Z,180.00
2023-05-21T10:15:47.390Z,180.00
2023-05-21T10:16:46.418Z,174.38
2023-05-21T10:17:46.430Z,180.00
2023-05-21T10:18:46.433Z,168.75
2023-05-21T10:19:46.395Z,168.75
2023-05-21T10:20:46.391Z,180.00
2023-05-21T10:21:46.392Z,185.63
2023-05-21T10:22:46.408Z,191.25
2023-05-21T10:23:46.399Z,191.25
2023-05-21T10:24:46.410Z,191.25
2023-05-21T10:25:46.449Z,191.25
2023-05-21T10:26:46.414Z,191.25
2023-05-21T10:27:46.415Z,185.63
2023-05-21T10:28:46.418Z,180.00
2023-05-21T10:29:46.421Z,185.63
2023-05-21T10:30:46.447Z,180.00
2023-05-21T10:31:46.457Z,191.25
2023-05-21T10:32:46.521Z,196.88
2023-05-21T10:33:46.431Z,196.88
2023-05-21T10:34:46.440Z,191.25
2023-05-21T10:35:46.432Z,202.50
2023-05-21T10:36:46.463Z,202.50
2023-05-21T10:37:46.463Z,219.38
2023-05-21T10:38:46.447Z,225.00
2023-05-21T10:39:46.449Z,225.00
2023-05-21T10:40:46.453Z,225.00
2023-05-21T10:41:46.466Z,225.00
2023-05-21T10:42:46.464Z,230.63
2023-05-21T10:43:46.483Z,236.25
2023-05-21T10:44:46.480Z,241.88
2023-05-21T10:45:46.539Z,247.50
2023-05-21T10:46:46.493Z,241.88
2023-05-21T10:47:46.556Z,247.50
2023-05-21T10:48:46.488Z,253.13
2023-05-21T10:49:46.506Z,258.75
2023-05-21T10:50:46.499Z,264.38
2023-05-21T10:51:46.506Z,270.00
2023-05-21T10:52:46.503Z,275.63
2023-05-21T10:53:46.531Z,286.88
2023-05-21T10:54:46.519Z,292.50
2023-05-21T10:55:46.515Z,292.50
2023-05-21T10:56:46.526Z,298.13
2023-05-21T10:57:46.528Z,298.13
2023-05-21T10:58:46.535Z,292.50
2023-05-21T10:59:46.538Z,298.13
2023-05-21T11:00:46.549Z,286.88
2023-05-21T11:01:46.675Z,286.88
2023-05-21T11:02:46.664Z,258.75
2023-05-21T11:03:46.592Z,270.00
2023-05-21T11:04:46.559Z,298.13
2023-05-21T11:05:46.568Z,281.25
2023-05-21T11:06:46.604Z,320.63
2023-05-21T11:07:46.583Z,337.50
2023-05-21T11:08:46.593Z,354.38
2023-05-21T11:09:46.583Z,371.25
2023-05-21T11:10:46.601Z,371.25
2023-05-21T11:11:46.619Z,298.13
2023-05-21T11:12:46.599Z,315.00
2023-05-21T11:13:46.600Z,360.00
2023-05-21T11:14:46.612Z,343.13
2023-05-21T11:15:46.604Z,253.13
2023-05-21T11:16:46.657Z,140.63
2023-05-21T11:17:46.662Z,101.25
2023-05-21T11:18:46.708Z,95.63
2023-05-21T11:19:46.633Z,90.00
2023-05-21T11:20:46.631Z,90.00
2023-05-21T11:21:46.628Z,84.38
2023-05-21T11:22:46.633Z,84.38
2023-05-21T11:23:46.641Z,78.75
2023-05-21T11:24:47.427Z,84.38
2023-05-21T11:25:46.656Z,84.38
2023-05-21T11:26:46.658Z,90.00
2023-05-21T11:27:46.674Z,84.38
2023-05-21T11:28:46.661Z,84.38
2023-05-21T11:29:46.661Z,84.38
2023-05-21T11:30:46.659Z,78.75
2023-05-21T11:31:46.790Z,78.75
2023-05-21T11:32:46.715Z,78.75
2023-05-21T11:33:46.672Z,78.75
2023-05-21T11:34:46.681Z,78.75
2023-05-21T11:35:46.843Z,84.38
2023-05-21T11:36:46.681Z,84.38
2023-05-21T11:37:46.694Z,78.75
2023-05-21T11:38:46.706Z,78.75
2023-05-21T11:39:46.690Z,78.75
2023-05-21T11:40:46.702Z,78.75
2023-05-21T11:41:46.696Z,78.75
2023-05-21T11:42:46.695Z,73.13
2023-05-21T11:43:46.691Z,73.13
2023-05-21T11:44:46.707Z,73.13
2023-05-21T11:45:46.703Z,73.13
2023-05-21T11:46:46.762Z,78.75
2023-05-21T11:47:46.751Z,78.75
2023-05-21T11:48:46.706Z,78.75
2023-05-21T11:49:46.707Z,78.75
2023-05-21T11:50:46.719Z,78.75
2023-05-21T11:51:46.712Z,73.13
2023-05-21T11:52:46.731Z,73.13
2023-05-21T11:53:46.714Z,73.13
2023-05-21T11:54:46.712Z,73.13
2023-05-21T11:55:46.728Z,73.13
2023-05-21T11:56:46.720Z,73.13
2023-05-21T11:57:46.716Z,73.13
2023-05-21T11:58:46.721Z,73.13
2023-05-21T11:59:46.742Z,73.13
2023-05-21T12:00:46.721Z,73.13
2023-05-21T12:01:46.723Z,73.13
2023-05-21T12:02:46.842Z,73.13
2023-05-21T12:03:46.835Z,73.13
2023-05-21T12:04:46.741Z,73.13
2023-05-21T12:05:46.846Z,73.13
2023-05-21T12:06:46.734Z,73.13
2023-05-21T12:07:46.735Z,78.75
2023-05-21T12:08:46.735Z,78.75
2023-05-21T12:09:46.741Z,78.75
2023-05-21T12:10:46.740Z,78.75
2023-05-21T12:11:46.740Z,78.75
2023-05-21T12:12:55.775Z,78.75
2023-05-21T12:13:46.791Z,78.75
2023-05-21T12:14:46.739Z,78.75
2023-05-21T12:15:46.750Z,78.75
2023-05-21T12:16:46.768Z,78.75
2023-05-21T12:17:46.771Z,78.75
2023-05-21T12:18:46.813Z,78.75
2023-05-21T12:19:46.781Z,78.75
2023-05-21T12:20:46.753Z,78.75
2023-05-21T12:21:46.752Z,78.75
2023-05-21T12:22:46.755Z,84.38
2023-05-21T12:23:46.756Z,84.38
2023-05-21T12:24:46.753Z,84.38
2023-05-21T12:25:46.762Z,84.38
2023-05-21T12:26:46.764Z,84.38
2023-05-21T12:27:46.772Z,84.38
2023-05-21T12:28:46.763Z,84.38
2023-05-21T12:29:46.851Z,78.75
2023-05-21T12:30:46.788Z,78.75
2023-05-21T12:31:46.809Z,78.75
2023-05-21T12:32:46.798Z,78.75
2023-05-21T12:33:46.780Z,78.75
2023-05-21T12:34:46.766Z,78.75
2023-05-21T12:35:46.956Z,78.75
2023-05-21T12:36:46.769Z,78.75
2023-05-21T12:37:46.780Z,73.13
2023-05-21T12:38:46.776Z,73.13
2023-05-21T12:39:46.772Z,73.13
2023-05-21T12:40:46.786Z,73.13
2023-05-21T12:41:46.791Z,73.13
2023-05-21T12:42:46.766Z,73.13
2023-05-21T12:43:46.776Z,73.13
2023-05-21T12:44:46.766Z,78.75
2023-05-21T12:45:46.801Z,73.13
2023-05-21T12:46:46.774Z,78.75
2023-05-21T12:47:46.840Z,78.75
2023-05-21T12:48:46.787Z,78.75
2023-05-21T12:49:46.783Z,84.38
2023-05-21T12:50:46.783Z,84.38
2023-05-21T12:51:46.782Z,84.38
2023-05-21T12:52:46.797Z,78.75
2023-05-21T12:53:46.780Z,78.75
2023-05-21T12:54:46.804Z,78.75
2023-05-21T12:55:46.793Z,78.75
2023-05-21T12:56:46.798Z,78.75
2023-05-21T12:57:46.801Z,78.75
2023-05-21T12:58:46.786Z,78.75